Time;durP1;ratioP1;P1;durP2;ratioP2;P2;SDS_P1;SDS_P2;PMS_P1;PMS_P2;Temp;Humidity;BMP_temperature;BMP_pressure;BME280_temperature;BME280_humidity;BME280_pressure;Samples;Min_cycle;Max_cycle;Signal;HPM_P1;HPM_P2
2023/02/10 00:01:08;;;;;;;47.58;29.77;;;;;;;;;;5049112;28;20017;-66
2023/02/10 00:03:35;;;;;;;45.42;29.08;;;;;;;;;;5042742;28;20571;-66
2023/02/10 00:06:01;;;;;;;48.65;28.65;;;;;;;;;;5046816;28;20047;-66
2023/02/10 00:08:27;;;;;;;53.55;31.17;;;;;;;;;;5047015;28;20025;-66
2023/02/10 00:10:58;;;;;;;46.90;28.73;;;;;;;;;;5045084;28;20100;-66
2023/02/10 00:13:24;;;;;;;51.22;30.30;;;;;;;;;;5046362;28;20126;-62
2023/02/10 00:15:50;;;;;;;53.40;30.13;;;;;;;;;;5038322;28;20487;-64
2023/02/10 00:18:18;;;;;;;46.75;30.15;;;;;;;;;;5046321;28;20025;-66
2023/02/10 00:20:44;;;;;;;53.40;32.53;;;;;;;;;;5031973;28;20053;-64
2023/02/10 00:23:10;;;;;;;50.22;31.42;;;;;;;;;;5008416;28;20053;-65
2023/02/10 00:25:36;;;;;;;48.03;32.28;;;;;;;;;;5026564;28;20038;-65
2023/02/10 00:28:03;;;;;;;48.30;30.85;;;;;;;;;;5038923;28;20028;-65
2023/02/10 00:30:29;;;;;;;51.75;31.77;;;;;;;;;;5028116;28;20044;-65
2023/02/10 00:32:55;;;;;;;52.83;34.38;;;;;;;;;;5017728;28;20049;-64
2023/02/10 00:35:21;;;;;;;56.40;34.35;;;;;;;;;;5026860;28;20037;-65
2023/02/10 00:37:47;;;;;;;54.58;37.05;;;;;;;;;;5039975;28;20065;-66
2023/02/10 00:40:13;;;;;;;52.55;35.10;;;;;;;;;;5028956;28;20037;-65
2023/02/10 00:42:39;;;;;;;62.83;38.22;;;;;;;;;;5047069;28;20785;-65
2023/02/10 00:45:06;;;;;;;56.08;35.45;;;;;;;;;;5046992;28;20678;-66
2023/02/10 00:47:31;;;;;;;54.95;36.13;;;;;;;;;;5050846;28;20032;-66
2023/02/10 00:49:57;;;;;;;51.92;33.17;;;;;;;;;;5032205;28;20032;-66
2023/02/10 00:52:24;;;;;;;59.72;38.63;;;;;;;;;;5030518;28;20025;-66
2023/02/10 00:54:50;;;;;;;56.40;34.72;;;;;;;;;;5074324;22;20055;-55
2023/02/10 00:57:16;;;;;;;53.35;34.10;;;;;;;;;;5010334;28;20121;-54
2023/02/10 00:59:42;;;;;;;56.25;34.80;;;;;;;;;;5027321;28;20105;-56
2023/02/10 01:02:08;;;;;;;54.83;35.35;;;;;;;;;;5030606;28;20022;-58
2023/02/10 01:04:34;;;;;;;62.90;36.08;;;;;;;;;;5029115;28;20108;-58
2023/02/10 01:07:00;;;;;;;55.75;36.00;;;;;;;;;;5033324;28;20044;-55
2023/02/10 01:09:26;;;;;;;52.95;35.65;;;;;;;;;;5033560;28;20108;-57
2023/02/10 01:11:52;;;;;;;53.05;35.08;;;;;;;;;;5033459;28;20654;-54
2023/02/10 01:14:18;;;;;;;60.45;34.60;;;;;;;;;;5033388;28;20100;-57
2023/02/10 01:16:44;;;;;;;59.63;34.92;;;;;;;;;;5033937;28;20021;-57
2023/02/10 01:19:10;;;;;;;55.72;34.75;;;;;;;;;;5042593;28;20017;-58
2023/02/10 01:21:38;;;;;;;55.08;36.97;;;;;;;;;;5053845;28;20531;-58
2023/02/10 01:24:04;;;;;;;55.60;33.75;;;;;;;;;;5053048;28;20025;-53
2023/02/10 01:26:30;;;;;;;65.15;36.60;;;;;;;;;;5053936;28;20035;-56
2023/02/10 01:28:56;;;;;;;61.85;38.15;;;;;;;;;;5053841;28;20634;-55
2023/02/10 01:31:22;;;;;;;59.08;35.92;;;;;;;;;;5053556;28;20473;-57
2023/02/10 01:33:52;;;;;;;61.97;38.40;;;;;;;;;;5052748;28;20033;-56
2023/02/10 01:36:19;;;;;;;67.90;38.75;;;;;;;;;;5053443;28;20566;-55
2023/02/10 01:38:46;;;;;;;58.45;38.47;;;;;;;;;;5053435;28;20100;-56
2023/02/10 01:41:13;;;;;;;66.90;37.17;;;;;;;;;;5035414;28;20032;-52
2023/02/10 01:43:57;;;;;;;61.05;38.67;;;;;;;;;;5052749;28;20025;-55
2023/02/10 01:46:23;;;;;;;60.83;34.95;;;;;;;;;;5053265;28;20025;-58
2023/02/10 01:48:50;;;;;;;67.63;37.63;;;;;;;;;;5035250;28;20135;-54
2023/02/10 01:51:17;;;;;;;61.00;37.97;;;;;;;;;;5035226;28;20056;-56
2023/02/10 01:53:44;;;;;;;65.07;38.90;;;;;;;;;;5052506;28;20116;-56
2023/02/10 01:56:11;;;;;;;58.95;37.10;;;;;;;;;;5052410;28;20040;-58
2023/02/10 01:58:37;;;;;;;61.50;37.42;;;;;;;;;;5053091;28;20052;-55
2023/02/10 02:01:03;;;;;;;56.50;36.13;;;;;;;;;;5053181;28;20028;-53
2023/02/10 02:03:29;;;;;;;62.38;38.35;;;;;;;;;;5034397;28;20033;-55
2023/02/10 02:05:55;;;;;;;59.40;36.90;;;;;;;;;;5052816;28;20477;-55
2023/02/10 02:08:21;;;;;;;67.22;37.92;;;;;;;;;;5034980;28;20029;-55
2023/02/10 02:11:01;;;;;;;71.60;41.45;;;;;;;;;;5053569;28;20067;-56
2023/02/10 02:13:33;;;;;;;56.45;36.33;;;;;;;;;;5035015;28;20021;-55
2023/02/10 02:16:05;;;;;;;62.80;41.10;;;;;;;;;;5045705;28;20060;-53
2023/02/10 02:18:45;;;;;;;66.03;38.53;;;;;;;;;;5032709;28;20026;-57
2023/02/10 02:21:31;;;;;;;65.00;39.90;;;;;;;;;;5025980;28;20389;-57
2023/02/10 02:24:12;;;;;;;58.22;36.97;;;;;;;;;;5030584;28;20055;-55
2023/02/10 02:26:57;;;;;;;70.82;39.55;;;;;;;;;;5014969;28;20018;-55
2023/02/10 02:32:33;;;;;;;64.50;40.85;;;;;;;;;;5032930;28;20056;-58
2023/02/10 02:35:02;;;;;;;68.65;39.28;;;;;;;;;;5031629;28;20052;-56
2023/02/10 02:37:34;;;;;;;74.28;42.53;;;;;;;;;;5032614;28;20029;-56
2023/02/10 02:40:01;;;;;;;65.57;39.35;;;;;;;;;;5032526;28;20025;-58
2023/02/10 02:42:31;;;;;;;66.70;41.05;;;;;;;;;;5014754;28;20378;-56
2023/02/10 02:44:57;;;;;;;64.47;39.33;;;;;;;;;;5031524;28;20029;-58
2023/02/10 02:47:42;;;;;;;79.25;39.67;;;;;;;;;;5014680;28;20087;-56
2023/02/10 02:50:26;;;;;;;69.70;41.85;;;;;;;;;;5014467;28;20038;-58
2023/02/10 02:53:05;;;;;;;61.50;39.13;;;;;;;;;;5032139;28;20485;-54
2023/02/10 02:55:34;;;;;;;66.55;41.10;;;;;;;;;;5031933;28;20038;-57
2023/02/10 02:58:03;;;;;;;66.50;43.25;;;;;;;;;;5014385;28;20028;-54
2023/02/10 03:00:30;;;;;;;67.63;41.22;;;;;;;;;;5032066;28;20017;-56
2023/02/10 03:02:59;;;;;;;64.93;39.63;;;;;;;;;;5031946;28;20043;-56
2023/02/10 03:05:28;;;;;;;59.30;38.80;;;;;;;;;;5030949;28;20455;-56
2023/02/10 03:07:54;;;;;;;64.90;42.10;;;;;;;;;;5031184;28;20044;-57
2023/02/10 03:10:24;;;;;;;75.75;42.40;;;;;;;;;;5031728;28;20072;-58
2023/02/10 03:12:53;;;;;;;69.82;41.47;;;;;;;;;;5014080;28;20053;-53
2023/02/10 03:15:19;;;;;;;78.32;46.60;;;;;;;;;;5030952;28;20032;-57
2023/02/10 03:17:45;;;;;;;73.95;43.08;;;;;;;;;;5031992;28;20033;-52
2023/02/10 03:20:11;;;;;;;67.82;40.63;;;;;;;;;;5025140;28;20040;-55
2023/02/10 03:22:37;;;;;;;74.28;41.85;;;;;;;;;;5051764;28;20091;-59
2023/02/10 03:25:03;;;;;;;74.90;40.13;;;;;;;;;;5050855;28;20493;-57
2023/02/10 03:27:29;;;;;;;73.95;45.67;;;;;;;;;;5051598;28;20032;-59
2023/02/10 03:29:55;;;;;;;67.70;41.80;;;;;;;;;;5033576;28;20025;-56
2023/02/10 03:32:21;;;;;;;63.72;43.40;;;;;;;;;;5033738;28;20033;-56
2023/02/10 03:34:47;;;;;;;67.50;42.30;;;;;;;;;;5050678;28;20024;-57
2023/02/10 03:37:13;;;;;;;72.35;43.17;;;;;;;;;;5051515;28;20029;-52
2023/02/10 03:39:39;;;;;;;70.07;43.20;;;;;;;;;;5051569;28;20031;-53
2023/02/10 03:42:06;;;;;;;75.05;44.75;;;;;;;;;;5051322;28;20017;-54
2023/02/10 03:44:32;;;;;;;71.60;44.53;;;;;;;;;;5050642;28;20025;-55
2023/02/10 03:46:58;;;;;;;73.95;45.55;;;;;;;;;;5033448;28;20075;-57
2023/02/10 03:49:24;;;;;;;75.13;44.63;;;;;;;;;;5051346;28;20033;-56
2023/02/10 03:51:50;;;;;;;76.70;43.83;;;;;;;;;;5051350;28;20468;-56
2023/02/10 03:54:16;;;;;;;75.25;44.28;;;;;;;;;;5032644;28;20025;-56
2023/02/10 03:56:42;;;;;;;78.40;45.35;;;;;;;;;;5051192;28;20481;-57
2023/02/10 03:59:08;;;;;;;68.28;44.45;;;;;;;;;;5051258;28;20067;-56
2023/02/10 04:01:34;;;;;;;79.88;46.78;;;;;;;;;;5033476;28;20048;-56
2023/02/10 04:04:01;;;;;;;72.82;43.75;;;;;;;;;;5032610;28;20100;-54
2023/02/10 04:06:27;;;;;;;84.60;48.00;;;;;;;;;;5051063;28;20672;-53
2023/02/10 04:08:53;;;;;;;79.88;46.28;;;;;;;;;;5050989;28;20029;-54
2023/02/10 04:11:19;;;;;;;82.90;46.83;;;;;;;;;;5050996;28;20028;-56
2023/02/10 04:13:45;;;;;;;79.57;45.83;;;;;;;;;;5050271;28;20025;-54
2023/02/10 04:16:15;;;;;;;87.93;47.92;;;;;;;;;;5033181;28;20048;-56
2023/02/10 04:18:41;;;;;;;85.72;48.00;;;;;;;;;;5051189;28;20021;-53
2023/02/10 04:21:08;;;;;;;78.40;47.35;;;;;;;;;;5036666;28;20022;-59
2023/02/10 04:23:34;;;;;;;81.68;44.72;;;;;;;;;;5054107;28;20029;-52
2023/02/10 04:26:00;;;;;;;85.25;49.13;;;;;;;;;;5054815;28;20033;-57
2023/02/10 04:28:26;;;;;;;88.53;47.75;;;;;;;;;;5054947;28;20032;-58
2023/02/10 04:30:56;;;;;;;75.47;42.92;;;;;;;;;;5054903;28;20029;-58
2023/02/10 04:33:24;;;;;;;85.30;50.15;;;;;;;;;;5054138;28;20378;-53
2023/02/10 04:35:51;;;;;;;85.30;48.13;;;;;;;;;;5054546;28;20029;-58
2023/02/10 04:38:17;;;;;;;85.28;46.70;;;;;;;;;;5054587;28;20029;-55
2023/02/10 04:40:43;;;;;;;93.07;50.30;;;;;;;;;;5054495;28;20040;-54
2023/02/10 04:43:09;;;;;;;83.55;44.80;;;;;;;;;;5053864;28;20081;-57
2023/02/10 04:45:36;;;;;;;82.70;48.05;;;;;;;;;;5036465;28;20029;-53
2023/02/10 04:48:02;;;;;;;82.18;43.60;;;;;;;;;;5054425;28;20032;-51
2023/02/10 04:50:28;;;;;;;83.32;44.22;;;;;;;;;;5036467;28;20025;-54
2023/02/10 04:52:54;;;;;;;97.75;52.80;;;;;;;;;;5054265;28;20029;-55
2023/02/10 04:55:20;;;;;;;99.53;51.97;;;;;;;;;;5053358;28;20049;-58
2023/02/10 04:57:46;;;;;;;91.07;50.03;;;;;;;;;;5054365;28;20017;-57
2023/02/10 05:00:13;;;;;;;102.05;54.58;;;;;;;;;;5054454;28;20123;-55
2023/02/10 05:02:39;;;;;;;102.20;51.15;;;;;;;;;;5035953;28;20111;-58
2023/02/10 05:05:05;;;;;;;93.53;50.38;;;;;;;;;;5035504;28;20106;-56
2023/02/10 05:07:31;;;;;;;114.63;54.85;;;;;;;;;;5054008;28;20032;-57
2023/02/10 05:09:57;;;;;;;113.85;61.47;;;;;;;;;;5053743;28;20082;-56
2023/02/10 05:12:23;;;;;;;89.90;49.03;;;;;;;;;;5053967;28;20029;-52
2023/02/10 05:14:49;;;;;;;86.30;48.92;;;;;;;;;;5035037;28;20029;-56
2023/02/10 05:17:15;;;;;;;105.13;56.03;;;;;;;;;;5035905;28;20143;-53
2023/02/10 05:19:41;;;;;;;96.32;54.15;;;;;;;;;;5053719;28;20025;-54
2023/02/10 05:22:07;;;;;;;89.55;51.08;;;;;;;;;;5053822;28;20389;-52
2023/02/10 05:24:36;;;;;;;105.93;54.00;;;;;;;;;;5052995;28;20033;-53
2023/02/10 05:27:02;;;;;;;96.57;52.33;;;;;;;;;;5053595;28;20033;-55
2023/02/10 05:29:28;;;;;;;108.90;56.67;;;;;;;;;;5053678;28;20063;-54
2023/02/10 05:31:54;;;;;;;88.93;51.03;;;;;;;;;;5052866;28;20017;-57
2023/02/10 05:34:20;;;;;;;90.45;51.50;;;;;;;;;;5052769;28;20021;-55
2023/02/10 05:36:46;;;;;;;102.32;49.67;;;;;;;;;;5053383;28;20017;-51
2023/02/10 05:39:25;;;;;;;101.97;52.58;;;;;;;;;;5053557;28;20021;-55
2023/02/10 05:41:52;;;;;;;104.05;51.08;;;;;;;;;;5035187;28;20024;-58
2023/02/10 05:44:18;;;;;;;96.57;49.78;;;;;;;;;;5052563;28;20025;-55
2023/02/10 05:46:44;;;;;;;89.32;49.78;;;;;;;;;;5053166;28;20143;-58
2023/02/10 05:49:10;;;;;;;91.38;51.10;;;;;;;;;;5035690;28;20481;-57
2023/02/10 05:51:36;;;;;;;95.20;52.53;;;;;;;;;;5035349;28;20050;-53
2023/02/10 05:54:02;;;;;;;98.93;52.45;;;;;;;;;;5052286;28;20393;-55
2023/02/10 05:56:28;;;;;;;95.25;51.80;;;;;;;;;;5052754;28;20084;-54
2023/02/10 05:58:54;;;;;;;94.70;49.70;;;;;;;;;;5052849;28;20087;-58
2023/02/10 06:01:21;;;;;;;84.57;49.28;;;;;;;;;;5052818;28;20025;-57
2023/02/10 06:03:47;;;;;;;89.18;53.08;;;;;;;;;;5052256;28;20028;-54
2023/02/10 06:06:13;;;;;;;98.97;53.55;;;;;;;;;;5052701;28;20395;-53
2023/02/10 06:08:39;;;;;;;81.63;51.42;;;;;;;;;;5034920;28;20032;-54
2023/02/10 06:11:05;;;;;;;90.93;52.28;;;;;;;;;;5052508;28;20025;-57
2023/02/10 06:13:31;;;;;;;92.70;52.72;;;;;;;;;;5033633;28;20485;-53
2023/02/10 06:15:57;;;;;;;85.90;51.00;;;;;;;;;;5034766;28;20025;-56
2023/02/10 06:18:23;;;;;;;83.55;47.70;;;;;;;;;;5052456;28;20437;-56
2023/02/10 06:20:50;;;;;;;79.45;45.80;;;;;;;;;;5052474;28;20025;-54
2023/02/10 06:23:17;;;;;;;83.35;49.65;;;;;;;;;;5051338;28;20037;-57
2023/02/10 06:25:43;;;;;;;82.85;51.20;;;;;;;;;;5034067;28;20139;-55
2023/02/10 06:28:09;;;;;;;87.10;51.42;;;;;;;;;;5051895;28;20044;-56
2023/02/10 06:30:35;;;;;;;97.15;52.53;;;;;;;;;;5052085;28;20093;-58
2023/02/10 06:33:02;;;;;;;81.63;50.15;;;;;;;;;;5033203;28;20021;-58
2023/02/10 06:35:28;;;;;;;88.22;49.42;;;;;;;;;;5051686;28;20033;-53
2023/02/10 06:37:54;;;;;;;84.82;48.72;;;;;;;;;;5034723;28;20560;-53
2023/02/10 06:40:20;;;;;;;94.20;54.53;;;;;;;;;;5051457;28;20017;-56
2023/02/10 06:42:47;;;;;;;88.03;46.22;;;;;;;;;;5051240;28;20028;-58
2023/02/10 06:45:13;;;;;;;93.73;50.57;;;;;;;;;;5050865;28;20103;-56
2023/02/10 06:47:39;;;;;;;79.40;50.22;;;;;;;;;;5051799;28;20443;-59
2023/02/10 06:50:06;;;;;;;86.15;52.53;;;;;;;;;;5051659;28;20401;-58
2023/02/10 06:52:34;;;;;;;88.75;50.63;;;;;;;;;;5051778;28;20025;-57
2023/02/10 06:55:01;;;;;;;86.63;52.97;;;;;;;;;;5031365;28;20083;-55
2023/02/10 06:57:27;;;;;;;82.20;47.75;;;;;;;;;;5056088;22;20405;-66
2023/02/10 06:59:53;;;;;;;84.10;48.92;;;;;;;;;;5030903;28;20080;-65
2023/02/10 07:02:19;;;;;;;81.40;50.63;;;;;;;;;;5023136;28;20045;-65
2023/02/10 07:04:45;;;;;;;87.35;50.40;;;;;;;;;;5008963;28;20027;-66
2023/02/10 07:07:11;;;;;;;95.78;53.65;;;;;;;;;;5006534;28;20066;-65
2023/02/10 07:09:37;;;;;;;81.25;51.13;;;;;;;;;;5000802;28;20039;-64
2023/02/10 07:12:03;;;;;;;88.85;49.83;;;;;;;;;;4992491;28;20105;-66
2023/02/10 07:14:29;;;;;;;72.97;46.08;;;;;;;;;;4990690;28;20050;-65
2023/02/10 07:16:55;;;;;;;78.95;47.95;;;;;;;;;;4992296;28;20022;-65
2023/02/10 07:19:21;;;;;;;84.38;48.22;;;;;;;;;;4992105;28;20029;-65
2023/02/10 07:21:47;;;;;;;83.47;46.72;;;;;;;;;;4990862;28;20026;-66
2023/02/10 07:24:14;;;;;;;79.18;45.28;;;;;;;;;;4990832;28;20042;-66
2023/02/10 07:26:40;;;;;;;79.60;45.88;;;;;;;;;;4991724;28;20468;-65
2023/02/10 07:29:06;;;;;;;82.20;50.47;;;;;;;;;;4991816;28;20049;-67
2023/02/10 07:31:35;;;;;;;103.28;51.05;;;;;;;;;;4991908;28;20022;-66
2023/02/10 07:34:01;;;;;;;;;;;;;;;;;;4991678;28;20069;-62
2023/02/10 07:36:27;;;;;;;83.40;48.65;;;;;;;;;;4991121;28;19981;-65
2023/02/10 07:38:53;;;;;;;69.90;41.35;;;;;;;;;;4991426;28;20034;-64
2023/02/10 07:41:19;;;;;;;87.25;47.47;;;;;;;;;;4991208;28;20030;-65
2023/02/10 07:43:45;;;;;;;91.47;49.67;;;;;;;;;;4991429;28;20026;-64
2023/02/10 07:46:11;;;;;;;80.20;46.17;;;;;;;;;;4991664;28;20450;-64
2023/02/10 07:48:37;;;;;;;87.82;53.45;;;;;;;;;;4991657;28;20050;-64
2023/02/10 07:51:03;;;;;;;91.65;48.95;;;;;;;;;;4991754;28;20038;-64
2023/02/10 07:53:29;;;;;;;91.10;54.10;;;;;;;;;;4989652;28;20402;-64
2023/02/10 07:55:57;;;;;;;102.85;49.20;;;;;;;;;;4994548;28;20043;-64
2023/02/10 07:58:23;;;;;;;;;;;;;;;;;;4995915;28;20046;-65
2023/02/10 08:00:49;;;;;;;88.85;46.08;;;;;;;;;;4995584;28;20289;-63
2023/02/10 08:03:16;;;;;;;85.15;47.22;;;;;;;;;;4994542;28;20034;-64
2023/02/10 08:05:42;;;;;;;86.85;48.28;;;;;;;;;;4994222;28;20034;-64
2023/02/10 08:08:09;;;;;;;89.57;47.38;;;;;;;;;;4995491;28;20034;-65
2023/02/10 08:10:35;;;;;;;76.85;46.05;;;;;;;;;;4995857;28;20049;-64
2023/02/10 08:13:01;;;;;;;89.95;48.35;;;;;;;;;;4995728;28;20410;-64
2023/02/10 08:15:27;;;;;;;74.43;40.63;;;;;;;;;;4995607;28;20022;-64
2023/02/10 08:17:53;;;;;;;80.47;46.17;;;;;;;;;;4978365;28;20029;-65
2023/02/10 08:20:19;;;;;;;93.15;50.13;;;;;;;;;;4995299;28;20034;-65
2023/02/10 08:22:45;;;;;;;97.18;48.33;;;;;;;;;;4995900;28;20554;-63
2023/02/10 08:25:11;;;;;;;92.18;49.70;;;;;;;;;;4994231;28;20038;-62
2023/02/10 08:27:37;;;;;;;97.95;49.20;;;;;;;;;;4993913;28;20050;-62
2023/02/10 08:30:05;;;;;;;106.00;49.65;;;;;;;;;;4994075;28;20027;-64
2023/02/10 08:32:31;;;;;;;97.18;50.30;;;;;;;;;;4993822;28;20031;-67
2023/02/10 08:34:57;;;;;;;64.50;36.30;;;;;;;;;;4975828;28;20042;-66
2023/02/10 08:37:23;;;;;;;96.13;51.38;;;;;;;;;;4993705;28;20022;-65
2023/02/10 08:39:49;;;;;;;88.78;47.58;;;;;;;;;;4993689;28;20022;-65
2023/02/10 08:42:15;;;;;;;98.75;51.97;;;;;;;;;;4993938;28;20034;-65
2023/02/10 08:44:41;;;;;;;96.85;51.03;;;;;;;;;;4992968;28;20035;-66
2023/02/10 08:47:10;;;;;;;97.35;49.22;;;;;;;;;;4994085;28;20128;-66
2023/02/10 08:49:37;;;;;;;96.38;51.17;;;;;;;;;;4993097;28;20045;-65
2023/02/10 08:52:03;;;;;;;102.85;55.72;;;;;;;;;;4993826;28;20030;-65
2023/02/10 08:54:29;;;;;;;92.45;51.63;;;;;;;;;;4991561;28;20503;-65
2023/02/10 08:56:55;;;;;;;85.85;46.42;;;;;;;;;;4644847;28;10000363;-66
2023/02/10 08:59:21;;;;;;;73.63;39.88;;;;;;;;;;4986179;28;20761;-63
2023/02/10 09:01:47;;;;;;;87.82;46.33;;;;;;;;;;4985617;28;20063;-64
2023/02/10 09:04:13;;;;;;;101.13;53.17;;;;;;;;;;4999959;28;20026;-65
2023/02/10 09:06:42;;;;;;;96.25;47.30;;;;;;;;;;4971549;28;20192;-65
2023/02/10 09:09:07;;;;;;;;;;;;;;;;;;4989949;28;20026;-65
2023/02/10 09:11:34;;;;;;;94.15;46.78;;;;;;;;;;4988822;28;19917;-62
2023/02/10 09:14:00;;;;;;;96.88;50.70;;;;;;;;;;4988748;28;20015;-63
2023/02/10 09:16:26;;;;;;;81.75;39.20;;;;;;;;;;4971947;28;20092;-62
2023/02/10 09:18:52;;;;;;;91.03;48.15;;;;;;;;;;4991548;28;20038;-61
2023/02/10 09:21:18;;;;;;;89.85;51.20;;;;;;;;;;4991618;28;20022;-62
2023/02/10 09:23:45;;;;;;;88.07;47.67;;;;;;;;;;4991844;28;20109;-61
2023/02/10 09:26:11;;;;;;;78.80;42.70;;;;;;;;;;4992067;28;20026;-61
2023/02/10 09:28:37;;;;;;;92.97;48.72;;;;;;;;;;4992426;28;20069;-62
2023/02/10 09:31:07;;;;;;;89.03;47.92;;;;;;;;;;4992947;28;20430;-61
2023/02/10 09:33:33;;;;;;;86.78;46.38;;;;;;;;;;4973964;28;20027;-60
2023/02/10 09:35:59;;;;;;;95.60;47.63;;;;;;;;;;4992649;28;20026;-63
2023/02/10 09:38:25;;;;;;;101.20;50.15;;;;;;;;;;4992469;28;20026;-64
2023/02/10 09:41:06;;;;;;;87.80;47.67;;;;;;;;;;4992934;28;20105;-63
2023/02/10 09:43:44;;;;;;;90.63;48.45;;;;;;;;;;4991773;28;20113;-63
2023/02/10 09:46:14;;;;;;;88.18;45.25;;;;;;;;;;4992243;28;20057;-64
2023/02/10 09:48:40;;;;;;;76.63;42.20;;;;;;;;;;4992438;28;20030;-63
2023/02/10 09:51:14;;;;;;;76.05;45.53;;;;;;;;;;4992284;28;20109;-61
2023/02/10 09:53:40;;;;;;;88.75;45.55;;;;;;;;;;4991697;28;20484;-63
2023/02/10 09:56:10;;;;;;;77.40;43.83;;;;;;;;;;4991871;28;20471;-61
2023/02/10 09:58:42;;;;;;;76.85;44.65;;;;;;;;;;4992627;28;20113;-62
2023/02/10 10:01:16;;;;;;;75.20;43.55;;;;;;;;;;4992470;28;20024;-60
2023/02/10 10:03:49;;;;;;;78.50;43.80;;;;;;;;;;4991392;28;20026;-62
2023/02/10 10:06:18;;;;;;;68.57;37.75;;;;;;;;;;4991676;28;20029;-61
2023/02/10 10:08:44;;;;;;;68.82;38.92;;;;;;;;;;4991838;28;20406;-61
2023/02/10 10:11:20;;;;;;;70.47;39.38;;;;;;;;;;4991895;28;20030;-60
2023/02/10 10:13:46;;;;;;;70.75;42.20;;;;;;;;;;4991045;28;20061;-62
2023/02/10 10:16:24;;;;;;;74.35;40.38;;;;;;;;;;4991784;28;20379;-61
2023/02/10 10:19:09;;;;;;;60.33;38.03;;;;;;;;;;4991510;28;20470;-62
2023/02/10 10:21:53;;;;;;;67.80;40.17;;;;;;;;;;4991712;28;20118;-60
2023/02/10 10:24:25;;;;;;;75.68;42.72;;;;;;;;;;4991145;28;20050;-62
2023/02/10 10:26:51;;;;;;;66.47;36.97;;;;;;;;;;4991673;28;20034;-61
2023/02/10 10:29:21;;;;;;;71.78;39.70;;;;;;;;;;4974375;28;20057;-63
2023/02/10 10:31:48;;;;;;;64.38;40.40;;;;;;;;;;4991684;28;20060;-61
2023/02/10 10:34:17;;;;;;;68.10;38.00;;;;;;;;;;4990650;28;20329;-62
2023/02/10 10:36:44;;;;;;;;;;;;;;;;;;4991997;28;20409;-64
2023/02/10 10:39:14;;;;;;;65.72;37.42;;;;;;;;;;4991678;28;19906;-61
2023/02/10 10:41:42;;;;;;;59.28;34.50;;;;;;;;;;4991444;28;20023;-61
2023/02/10 10:44:10;;;;;;;59.53;34.50;;;;;;;;;;4990783;28;20098;-61
2023/02/10 10:46:43;;;;;;;59.45;35.55;;;;;;;;;;4991307;28;20022;-61
2023/02/10 10:49:10;;;;;;;46.95;26.55;;;;;;;;;;4990921;28;20018;-62
2023/02/10 10:51:37;;;;;;;58.47;34.08;;;;;;;;;;4990863;28;20044;-63
2023/02/10 10:54:05;;;;;;;50.10;29.63;;;;;;;;;;4990502;28;20030;-59
2023/02/10 10:56:34;;;;;;;51.67;30.75;;;;;;;;;;4991122;28;20479;-64
2023/02/10 10:59:00;;;;;;;47.63;30.35;;;;;;;;;;4991341;28;20483;-63
2023/02/10 11:01:34;;;;;;;57.00;31.85;;;;;;;;;;4990993;28;20039;-59
2023/02/10 11:04:08;;;;;;;52.05;31.73;;;;;;;;;;4991801;28;20081;-62
2023/02/10 11:06:35;;;;;;;53.85;31.15;;;;;;;;;;4991678;28;20049;-62
2023/02/10 11:09:02;;;;;;;48.55;29.25;;;;;;;;;;4990771;28;20041;-61
2023/02/10 11:11:37;;;;;;;50.58;30.15;;;;;;;;;;4990536;28;20057;-62
2023/02/10 11:14:03;;;;;;;51.10;31.73;;;;;;;;;;4989902;28;20533;-61
2023/02/10 11:16:29;;;;;;;50.33;32.15;;;;;;;;;;4989646;28;20386;-61
2023/02/10 11:19:01;;;;;;;49.34;30.54;;;;;;;;;;4828438;28;10001236;-62
2023/02/10 11:21:37;;;;;;;54.85;32.10;;;;;;;;;;4969444;28;20247;-60
2023/02/10 11:24:04;;;;;;;57.63;33.53;;;;;;;;;;4991471;28;20161;-62
2023/02/10 11:26:30;;;;;;;46.33;31.58;;;;;;;;;;4997009;28;20022;-65
2023/02/10 11:28:56;;;;;;;54.80;30.38;;;;;;;;;;4996019;28;20022;-63
2023/02/10 11:31:22;;;;;;;46.58;28.52;;;;;;;;;;4988780;28;20034;-64
2023/02/10 11:34:06;;;;;;;45.80;27.70;;;;;;;;;;4988437;28;20015;-64
2023/02/10 11:36:37;;;;;;;45.92;27.25;;;;;;;;;;4643120;28;10000167;-64
2023/02/10 11:39:07;;;;;;;47.70;28.10;;;;;;;;;;4987009;28;20029;-64
2023/02/10 11:41:33;;;;;;;42.03;25.23;;;;;;;;;;4992255;28;20040;-64
2023/02/10 11:44:00;;;;;;;37.85;23.85;;;;;;;;;;5002906;28;20034;-64
2023/02/10 11:46:27;;;;;;;45.78;25.00;;;;;;;;;;4986590;28;20024;-64
2023/02/10 11:48:54;;;;;;;41.08;23.50;;;;;;;;;;4986020;28;20033;-64
2023/02/10 11:51:20;;;;;;;39.13;23.73;;;;;;;;;;4982827;28;20014;-63
2023/02/10 11:53:47;;;;;;;31.75;20.58;;;;;;;;;;4990708;28;20027;-64
2023/02/10 11:58:58;;;;;;;38.55;22.17;;;;;;;;;;4993668;28;20030;-63
2023/02/10 11:59:30;;;;;;;40.00;23.08;;;;;;;;;;4986169;28;20045;-64
2023/02/10 12:02:05;;;;;;;38.72;23.75;;;;;;;;;;4968760;28;20050;-64
2023/02/10 12:04:43;;;;;;;36.58;20.70;;;;;;;;;;4985771;28;20120;-64
2023/02/10 12:07:12;;;;;;;40.58;21.63;;;;;;;;;;4966901;28;20036;-63
2023/02/10 12:09:41;;;;;;;39.83;20.75;;;;;;;;;;4999833;28;20128;-65
2023/02/10 12:12:10;;;;;;;36.13;21.05;;;;;;;;;;4986042;28;20026;-63
2023/02/10 12:14:55;;;;;;;37.25;22.55;;;;;;;;;;4986054;28;20077;-63
2023/02/10 12:17:27;;;;;;;37.55;23.02;;;;;;;;;;4984753;28;20018;-63
2023/02/10 12:19:57;;;;;;;35.38;19.90;;;;;;;;;;4984397;28;20108;-61
2023/02/10 12:22:26;;;;;;;37.35;21.73;;;;;;;;;;4982594;28;20085;-63
2023/02/10 12:25:11;;;;;;;36.50;21.00;;;;;;;;;;4985005;28;20056;-64
2023/02/10 12:28:00;;;;;;;39.42;21.45;;;;;;;;;;4986363;28;20029;-64
2023/02/10 12:30:30;;;;;;;37.65;22.38;;;;;;;;;;4966255;28;20070;-61
2023/02/10 12:33:15;;;;;;;37.25;22.70;;;;;;;;;;4986137;28;20078;-57
2023/02/10 12:35:59;;;;;;;41.88;22.92;;;;;;;;;;4985693;28;20412;-63
2023/02/10 12:38:33;;;;;;;35.08;22.90;;;;;;;;;;5000768;28;20058;-62
2023/02/10 12:41:05;;;;;;;44.35;24.15;;;;;;;;;;5002729;28;20022;-62
2023/02/10 12:43:50;;;;;;;38.08;22.33;;;;;;;;;;4984796;28;20027;-63
2023/02/10 12:46:35;;;;;;;36.70;23.13;;;;;;;;;;4989765;28;20038;-63
2023/02/10 12:49:06;;;;;;;34.08;21.30;;;;;;;;;;4990435;28;20066;-63
2023/02/10 12:51:44;;;;;;;39.72;22.30;;;;;;;;;;4990269;28;20034;-63
2023/02/10 12:54:13;;;;;;;37.67;21.13;;;;;;;;;;4989821;28;20511;-63
2023/02/10 12:56:45;;;;;;;36.75;20.15;;;;;;;;;;5001314;22;20030;-60
2023/02/10 12:59:17;;;;;;;36.20;20.52;;;;;;;;;;5048500;28;20067;-55
2023/02/10 13:01:46;;;;;;;34.95;20.50;;;;;;;;;;5030621;28;20498;-59
2023/02/10 13:04:22;;;;;;;32.30;18.23;;;;;;;;;;5048171;28;20035;-58
2023/02/10 13:07:09;;;;;;;40.38;20.60;;;;;;;;;;5046215;28;20022;-56
2023/02/10 13:09:40;;;;;;;41.38;21.85;;;;;;;;;;5029594;28;20025;-59
2023/02/10 13:12:25;;;;;;;38.95;20.83;;;;;;;;;;5027709;28;20876;-58
2023/02/10 13:14:54;;;;;;;38.95;20.58;;;;;;;;;;5027973;28;20030;-59
2023/02/10 13:17:20;;;;;;;37.35;19.73;;;;;;;;;;5029500;28;20025;-58
2023/02/10 13:20:11;;;;;;;44.53;22.70;;;;;;;;;;5026253;28;20497;-59
2023/02/10 13:22:49;;;;;;;34.08;19.48;;;;;;;;;;5026590;28;20174;-61
2023/02/10 13:25:18;;;;;;;41.55;19.95;;;;;;;;;;5012228;28;20159;-61
2023/02/10 13:27:53;;;;;;;34.00;20.05;;;;;;;;;;5012824;28;20086;-59
2023/02/10 13:30:38;;;;;;;45.13;21.95;;;;;;;;;;5030579;28;20273;-57
2023/02/10 13:33:04;;;;;;;36.63;19.55;;;;;;;;;;5028851;28;20021;-60
2023/02/10 13:35:31;;;;;;;30.30;18.83;;;;;;;;;;5029309;28;20489;-60
2023/02/10 13:37:59;;;;;;;30.67;19.70;;;;;;;;;;5011477;28;20434;-59
2023/02/10 13:40:44;;;;;;;36.67;21.83;;;;;;;;;;5029550;28;20345;-55
2023/02/10 13:43:22;;;;;;;33.90;19.02;;;;;;;;;;5028676;28;20026;-60
2023/02/10 13:45:51;;;;;;;35.42;18.77;;;;;;;;;;5028680;28;20454;-61
2023/02/10 13:48:29;;;;;;;32.53;18.08;;;;;;;;;;5028296;28;20041;-57
2023/02/10 13:50:57;;;;;;;33.95;19.83;;;;;;;;;;5010464;28;20494;-60
2023/02/10 13:53:26;;;;;;;39.55;19.95;;;;;;;;;;5026538;28;20658;-59
2023/02/10 13:56:02;;;;;;;27.63;16.98;;;;;;;;;;5028407;28;20026;-60
2023/02/10 13:58:32;;;;;;;29.55;17.20;;;;;;;;;;5026466;28;20033;-55
2023/02/10 14:00:58;;;;;;;27.60;16.77;;;;;;;;;;5026119;28;20437;-56
2023/02/10 14:03:29;;;;;;;35.75;18.98;;;;;;;;;;5028685;28;20056;-61
2023/02/10 14:06:06;;;;;;;34.72;20.17;;;;;;;;;;5032288;28;20120;-61
2023/02/10 14:08:39;;;;;;;34.63;18.73;;;;;;;;;;5030599;28;20104;-59
2023/02/10 14:11:14;;;;;;;31.77;20.98;;;;;;;;;;5033061;28;20041;-60
2023/02/10 14:13:41;;;;;;;40.30;20.75;;;;;;;;;;5011443;28;20033;-57
2023/02/10 14:16:16;;;;;;;34.65;19.90;;;;;;;;;;5028822;28;20049;-60
2023/02/10 14:18:46;;;;;;;35.78;20.40;;;;;;;;;;5010962;28;20025;-58
2023/02/10 14:21:12;;;;;;;33.45;18.17;;;;;;;;;;5020335;28;20022;-58
2023/02/10 14:23:39;;;;;;;30.50;17.73;;;;;;;;;;5027904;28;20033;-59
2023/02/10 14:26:06;;;;;;;27.00;16.75;;;;;;;;;;5010794;28;20071;-55
2023/02/10 14:28:37;;;;;;;31.65;16.55;;;;;;;;;;5024740;28;20081;-60
2023/02/10 14:31:12;;;;;;;26.85;15.52;;;;;;;;;;5029420;28;20025;-59